Time,TemperatureF,DewpointF,PressureIn,WindDirection,WindDirectionDegrees,WindSpeedMPH,WindSpeedGustMPH,Humidity,HourlyPrecipIn,Conditions,Clouds,dailyrainin,SoftwareType,DateUTC
2013-01-07 00:00:00,73.2,68.4,30.15,NW,315,0.0,0.0,85,0.00,CLR,,0.00,WeatherDisplay:10.37,2013-01-07 05:00:00,
2013-01-07 00:01:00,73.2,68.4,30.15,NW,315,0.0,0.0,85,0.00,CLR,,0.00,WeatherDisplay:10.37,2013-01-07 05:01:00,
2013-01-07 00:03:00,73.2,68.8,30.15,NW,315,0.0,0.0,86,0.00,CLR,,0.00,WeatherDisplay:10.37,2013-01-07 05:03:00,
2013-01-07 00:08:00,73.0,68.6,30.15,NW,315,0.0,0.0,86,0.00,CLR,,0.00,WeatherDisplay:10.37,2013-01-07 05:08:00,
2013-01-07 00:13:00,73.0,68.6,30.15,WNW,292,0.0,0.0,86,0.00,CLR,,0.00,WeatherDisplay:10.37,2013-01-07 05:13:00,
2013-01-07 00:18:00,73.0,68.6,30.15,West,270,0.0,0.0,86,0.00,CLR,,0.00,WeatherDisplay:10.37,2013-01-07 05:18:00,
2013-01-07 00:23:00,72.9,68.4,30.15,West,270,3.5,3.5,86,0.00,CLR,,0.00,WeatherDisplay:10.37,2013-01-07 05:23:00,
2013-01-07 00:28:00,72.7,68.2,30.15,NW,315,4.6,4.6,86,0.00,CLR,,0.00,WeatherDisplay:10.37,2013-01-07 05:28:00,
2013-01-07 00:33:00,72.5,68.4,30.15,NW,315,6.0,6.0,87,0.00,CLR,,0.00,WeatherDisplay:10.37,2013-01-07 05:33:00,
2013-01-07 00:38:00,72.3,68.2,30.15,NW,315,5.8,5.8,87,0.00,CLR,,0.00,WeatherDisplay:10.37,2013-01-07 05:38:00,
2013-01-07 00:43:00,72.3,68.2,30.15,WNW,292,4.6,4.6,87,0.00,CLR,,0.00,WeatherDisplay:10.37,2013-01-07 05:43:00,
2013-01-07 00:48:00,72.3,68.2,30.15,WNW,292,3.8,3.8,87,0.00,CLR,,0.00,WeatherDisplay:10.37,2013-01-07 05:48:00,
2013-01-07 00:54:00,72.1,68.1,30.15,NW,315,3.8,3.8,87,0.00,CLR,,0.00,WeatherDisplay:10.37,2013-01-07 05:54:00,
2013-01-07 00:59:00,72.0,67.9,30.15,WNW,292,5.9,5.9,87,0.00,CLR,,0.00,WeatherDisplay:10.37,2013-01-07 05:59:00,
2013-01-07 01:04:00,72.0,68.2,30.15,West,270,6.0,6.0,88,0.00,CLR,,0.00,WeatherDisplay:10.37,2013-01-07 06:04:00,
2013-01-07 01:09:00,71.8,68.0,30.15,WNW,292,5.8,5.8,88,0.00,CLR,,0.00,WeatherDisplay:10.37,2013-01-07 06:09:00,
2013-01-07 01:14:00,71.6,67.9,30.15,WNW,292,5.8,5.8,88,0.00,CLR,,0.00,WeatherDisplay:10.37,2013-01-07 06:14:00,
2013-01-07 01:19:00,71.4,68.0,30.12,WNW,292,6.4,6.4,89,0.00,CLR,,0.00,WeatherDisplay:10.37,2013-01-07 06:19:00,
2013-01-07 01:24:00,71.4,68.0,30.12,West,270,4.6,4.6,89,0.00,CLR,,0.00,WeatherDisplay:10.37,2013-01-07 06:24:00,
2013-01-07 01:29:00,71.2,67.8,30.12,WNW,292,5.9,5.9,89,0.00,CLR,,0.00,WeatherDisplay:10.37,2013-01-07 06:29:00,
2013-01-07 01:34:00,71.2,67.8,30.12,WNW,292,5.8,5.8,89,0.00,CLR,,0.00,WeatherDisplay:10.37,2013-01-07 06:34:00,
2013-01-07 01:39:00,71.2,67.8,30.12,WNW,292,4.6,4.6,89,0.00,CLR,,0.00,WeatherDisplay:10.37,2013-01-07 06:39:00,
2013-01-07 01:44:00,71.1,67.7,30.15,WNW,292,6.0,6.0,89,0.00,CLR,,0.00,WeatherDisplay:10.37,2013-01-07 06:44:00,
2013-01-07 01:49:00,71.1,68.0,30.09,WNW,292,5.9,5.9,90,0.00,CLR,,0.00,WeatherDisplay:10.37,2013-01-07 06:49:00,
2013-01-07 01:54:00,70.9,67.8,30.09,NW,315,6.4,6.4,90,0.00,CLR,,0.00,WeatherDisplay:10.37,2013-01-07 06:54:00,
2013-01-07 02:00:00,70.9,67.8,30.09,WNW,292,5.8,5.8,90,0.00,CLR,,0.00,WeatherDisplay:10.37,2013-01-07 07:00:00,
2013-01-07 02:05:00,70.9,67.8,30.12,WNW,292,6.9,6.9,90,0.00,CLR,,0.00,WeatherDisplay:10.37,2013-01-07 07:05:00,
2013-01-07 02:10:00,70.9,67.8,30.12,NW,315,5.8,5.8,90,0.00,CLR,,0.00,WeatherDisplay:10.37,2013-01-07 07:10:00,
2013-01-07 02:15:00,70.9,67.8,30.12,WNW,292,5.8,5.8,90,0.00,CLR,,0.00,WeatherDisplay:10.37,2013-01-07 07:15:00,
2013-01-07 02:20:00,70.9,67.8,30.12,NW,315,4.6,4.6,90,0.00,CLR,,0.00,WeatherDisplay:10.37,2013-01-07 07:20:00,
2013-01-07 02:25:00,70.5,67.8,30.12,NW,315,4.6,4.6,91,0.00,CLR,,0.00,WeatherDisplay:10.37,2013-01-07 07:25:00,
2013-01-07 02:31:00,70.5,67.8,30.09,NW,315,5.8,5.8,91,0.00,CLR,,0.00,WeatherDisplay:10.37,2013-01-07 07:31:00,
2013-01-07 02:36:00,70.5,67.8,30.09,WNW,292,5.8,5.8,91,0.00,CLR,,0.00,WeatherDisplay:10.37,2013-01-07 07:36:00,
2013-01-07 02:41:00,70.3,67.6,30.09,NNW,338,5.8,5.8,91,0.00,CLR,,0.00,WeatherDisplay:10.37,2013-01-07 07:41:00,
2013-01-07 02:46:00,70.3,67.6,30.12,NW,315,6.9,6.9,91,0.00,CLR,,0.00,WeatherDisplay:10.37,2013-01-07 07:46:00,
2013-01-07 02:51:00,70.3,67.6,30.12,NW,315,5.9,5.9,91,0.00,CLR,,0.00,WeatherDisplay:10.37,2013-01-07 07:51:00,
2013-01-07 02:56:00,70.3,67.6,30.12,NW,315,5.8,5.8,91,0.00,CLR,,0.00,WeatherDisplay:10.37,2013-01-07 07:56:00,
2013-01-07 03:01:00,70.3,67.6,30.09,NW,315,5.8,5.8,91,0.00,CLR,,0.00,WeatherDisplay:10.37,2013-01-07 08:01:00,
2013-01-07 03:06:00,70.2,67.4,30.09,WNW,292,5.8,5.8,91,0.00,CLR,,0.00,WeatherDisplay:10.37,2013-01-07 08:06:00,
2013-01-07 03:12:00,70.2,67.4,30.09,NW,315,5.8,5.9,91,0.00,CLR,,0.00,WeatherDisplay:10.37,2013-01-07 08:12:00,
2013-01-07 03:17:00,70.2,67.4,30.09,NW,315,5.8,5.8,91,0.00,CLR,,0.00,WeatherDisplay:10.37,2013-01-07 08:17:00,
2013-01-07 03:22:00,70.2,67.4,30.09,NW,315,4.6,4.6,91,0.00,CLR,,0.00,WeatherDisplay:10.37,2013-01-07 08:22:00,
2013-01-07 03:27:00,70.2,67.4,30.09,NW,315,5.8,5.8,91,0.00,CLR,,0.00,WeatherDisplay:10.37,2013-01-07 08:27:00,
2013-01-07 03:32:00,70.2,67.4,30.12,NW,315,4.6,4.6,91,0.00,CLR,,0.00,WeatherDisplay:10.37,2013-01-07 08:32:00,
2013-01-07 03:38:00,70.2,67.4,30.12,NW,315,4.6,4.6,91,0.00,CLR,,0.00,WeatherDisplay:10.37,2013-01-07 08:38:00,
2013-01-07 03:43:00,70.0,67.2,30.12,NW,315,4.6,4.6,91,0.00,CLR,,0.00,WeatherDisplay:10.37,2013-01-07 08:43:00,
2013-01-07 03:48:00,70.2,67.4,30.09,NW,315,4.6,4.6,91,0.00,CLR,,0.00,WeatherDisplay:10.37,2013-01-07 08:48:00,
2013-01-07 03:53:00,70.0,67.2,30.09,WNW,292,4.6,4.6,91,0.00,CLR,,0.00,WeatherDisplay:10.37,2013-01-07 08:53:00,
2013-01-07 03:58:00,70.0,67.2,30.09,NW,315,4.6,4.6,91,0.00,CLR,,0.00,WeatherDisplay:10.37,2013-01-07 08:58:00,
2013-01-07 04:03:00,70.0,67.2,30.09,WNW,292,5.8,5.8,91,0.00,CLR,,0.00,WeatherDisplay:10.37,2013-01-07 09:03:00,
2013-01-07 04:08:00,70.0,67.2,30.09,NW,315,4.6,4.7,91,0.00,CLR,,0.00,WeatherDisplay:10.37,2013-01-07 09:08:00,
2013-01-07 04:13:00,70.0,67.5,30.09,West,270,5.8,5.8,92,0.00,CLR,,0.00,WeatherDisplay:10.37,2013-01-07 09:13:00,
2013-01-07 04:19:00,70.0,67.5,30.09,WNW,292,5.8,5.8,92,0.00,CLR,,0.00,WeatherDisplay:10.37,2013-01-07 09:19:00,
2013-01-07 04:24:00,69.8,67.4,30.09,NW,315,5.8,5.8,92,0.00,CLR,,0.00,WeatherDisplay:10.37,2013-01-07 09:24:00,
2013-01-07 04:29:00,69.8,67.4,30.09,North,0,5.8,5.8,92,0.00,CLR,,0.00,WeatherDisplay:10.37,2013-01-07 09:29:00,
2013-01-07 04:34:00,69.8,67.4,30.09,WNW,292,5.8,5.8,92,0.00,CLR,,0.00,WeatherDisplay:10.37,2013-01-07 09:34:00,
2013-01-07 04:39:00,70.0,67.5,30.09,NW,315,4.6,4.6,92,0.00,CLR,,0.00,WeatherDisplay:10.37,2013-01-07 09:39:00,
2013-01-07 04:44:00,70.0,67.5,30.09,NW,315,5.8,5.8,92,0.00,CLR,,0.00,WeatherDisplay:10.37,2013-01-07 09:44:00,
2013-01-07 04:50:00,70.0,67.5,30.09,NNW,338,3.5,3.5,92,0.00,CLR,,0.00,WeatherDisplay:10.37,2013-01-07 09:50:00,
2013-01-07 04:55:00,70.0,67.5,30.09,NW,315,3.5,3.5,92,0.00,CLR,,0.00,WeatherDisplay:10.37,2013-01-07 09:55:00,
2013-01-07 05:00:00,70.0,67.5,30.09,North,0,2.3,0.0,92,0.00,CLR,,0.00,WeatherDisplay:10.37,2013-01-07 10:00:00,
2013-01-07 05:05:00,70.2,67.4,30.09,North,0,2.3,0.0,91,0.00,CLR,,0.00,WeatherDisplay:10.37,2013-01-07 10:05:00,
2013-01-07 05:10:00,70.2,67.4,30.09,North,0,3.6,3.6,91,0.00,CLR,,0.00,WeatherDisplay:10.37,2013-01-07 10:10:00,
2013-01-07 05:15:00,70.2,67.4,30.09,NNW,346,2.0,4.0,91,0.00,CLR,,0.00,WeatherDisplay:10.37,2013-01-07 10:15:00,
2013-01-07 05:21:00,70.2,67.4,30.09,WNW,292,3.5,3.6,91,0.00,CLR,,0.00,WeatherDisplay:10.37,2013-01-07 10:21:00,
2013-01-07 05:26:00,70.0,67.2,30.09,NW,315,3.5,3.5,91,0.00,CLR,,0.00,WeatherDisplay:10.37,2013-01-07 10:26:00,
2013-01-07 05:31:00,70.2,67.4,30.09,WNW,292,3.5,3.5,91,0.00,CLR,,0.00,WeatherDisplay:10.37,2013-01-07 10:31:00,
2013-01-07 05:36:00,70.0,67.2,30.09,North,0,4.0,4.0,91,0.00,CLR,,0.00,WeatherDisplay:10.37,2013-01-07 10:36:00,
2013-01-07 05:42:00,70.2,67.4,30.09,NNW,338,5.8,5.8,91,0.00,CLR,,0.00,WeatherDisplay:10.37,2013-01-07 10:42:00,
2013-01-07 05:47:00,70.2,67.4,30.12,NW,315,5.8,5.8,91,0.00,CLR,,0.00,WeatherDisplay:10.37,2013-01-07 10:47:00,
2013-01-07 05:52:00,70.2,67.4,30.12,NW,315,3.5,3.5,91,0.00,CLR,,0.00,WeatherDisplay:10.37,2013-01-07 10:52:00,
2013-01-07 05:58:00,70.2,67.4,30.12,NNW,338,3.5,3.5,91,0.00,CLR,,0.00,WeatherDisplay:10.37,2013-01-07 10:58:00,
2013-01-07 06:03:00,70.2,67.4,30.09,NW,315,0.0,0.0,91,0.00,CLR,,0.00,WeatherDisplay:10.37,2013-01-07 11:03:00,
2013-01-07 06:08:00,70.2,67.4,30.09,NW,315,3.5,3.5,91,0.00,CLR,,0.00,WeatherDisplay:10.37,2013-01-07 11:08:00,
2013-01-07 06:13:00,70.2,67.4,30.09,WNW,292,3.5,3.5,91,0.00,CLR,,0.00,WeatherDisplay:10.37,2013-01-07 11:13:00,
2013-01-07 06:18:00,70.3,67.6,30.09,NW,315,3.5,3.5,91,0.00,CLR,,0.00,WeatherDisplay:10.37,2013-01-07 11:18:00,
2013-01-07 06:23:00,70.3,67.6,30.09,NW,315,3.8,3.8,91,0.00,CLR,,0.00,WeatherDisplay:10.37,2013-01-07 11:23:00,
2013-01-07 06:28:00,70.2,67.4,30.09,NW,315,4.6,4.6,91,0.00,CLR,,0.00,WeatherDisplay:10.37,2013-01-07 11:28:00,
2013-01-07 06:34:00,70.2,67.4,30.12,NW,315,3.5,3.5,91,0.00,CLR,,0.00,WeatherDisplay:10.37,2013-01-07 11:34:00,
2013-01-07 06:39:00,70.2,67.4,30.12,NW,315,3.5,3.5,91,0.00,CLR,,0.00,WeatherDisplay:10.37,2013-01-07 11:39:00,
2013-01-07 06:44:00,70.2,67.4,30.12,NW,315,4.6,4.6,91,0.00,CLR,,0.00,WeatherDisplay:10.37,2013-01-07 11:44:00,
2013-01-07 06:49:00,70.2,67.4,30.15,NW,315,4.6,4.6,91,0.00,CLR,,0.00,WeatherDisplay:10.37,2013-01-07 11:49:00,
2013-01-07 06:54:00,70.2,67.4,30.15,NW,315,3.1,3.1,91,0.00,CLR,,0.00,WeatherDisplay:10.37,2013-01-07 11:54:00,
2013-01-07 07:00:00,70.2,67.4,30.15,WNW,292,4.0,4.0,91,0.00,CLR,,0.00,WeatherDisplay:10.37,2013-01-07 12:00:00,
2013-01-07 07:05:00,70.0,67.2,30.12,WNW,292,4.6,4.6,91,0.00,CLR,,0.00,WeatherDisplay:10.37,2013-01-07 12:05:00,
2013-01-07 07:10:00,70.0,67.2,30.12,NW,315,5.9,5.9,91,0.00,CLR,,0.00,WeatherDisplay:10.37,2013-01-07 12:10:00,
2013-01-07 07:15:00,70.0,67.2,30.12,NW,315,3.5,3.5,91,0.00,CLR,,0.00,WeatherDisplay:10.37,2013-01-07 12:15:00,
2013-01-07 07:20:00,69.8,67.1,30.15,NW,315,4.6,4.6,91,0.00,CLR,,0.00,WeatherDisplay:10.37,2013-01-07 12:20:00,
2013-01-07 07:25:00,69.8,67.1,30.15,NW,315,4.9,4.9,91,0.00,CLR,,0.00,WeatherDisplay:10.37,2013-01-07 12:25:00,
2013-01-07 07:30:00,70.0,67.2,30.12,North,0,5.8,5.8,91,0.00,CLR,,0.00,WeatherDisplay:10.37,2013-01-07 12:30:00,
2013-01-07 07:36:00,70.0,67.2,30.12,North,0,3.8,3.8,91,0.00,CLR,,0.00,WeatherDisplay:10.37,2013-01-07 12:36:00,
2013-01-07 07:41:00,70.2,67.4,30.12,North,0,3.5,3.5,91,0.00,CLR,,0.00,WeatherDisplay:10.37,2013-01-07 12:41:00,
2013-01-07 07:46:00,70.3,67.6,30.15,NNW,338,4.6,4.6,91,0.00,CLR,,0.00,WeatherDisplay:10.37,2013-01-07 12:46:00,
2013-01-07 07:51:00,70.2,67.4,30.15,NNW,338,5.6,5.6,91,0.00,CLR,,0.00,WeatherDisplay:10.37,2013-01-07 12:51:00,
2013-01-07 07:57:00,70.5,67.8,30.15,North,0,4.9,4.9,91,0.00,CLR,,0.00,WeatherDisplay:10.37,2013-01-07 12:57:00,
2013-01-07 08:02:00,70.5,67.8,30.15,NNW,338,4.6,4.6,91,0.00,CLR,,0.00,WeatherDisplay:10.37,2013-01-07 13:02:00,
2013-01-07 08:07:00,70.5,67.8,30.15,NW,315,2.6,2.6,91,0.00,CLR,,0.00,WeatherDisplay:10.37,2013-01-07 13:07:00,
2013-01-07 08:12:00,70.9,67.8,30.15,North,0,6.9,6.9,90,0.00,CLR,,0.00,WeatherDisplay:10.37,2013-01-07 13:12:00,
2013-01-07 08:17:00,70.9,67.8,30.15,North,0,5.8,5.8,90,0.00,CLR,,0.00,WeatherDisplay:10.37,2013-01-07 13:17:00,
2013-01-07 08:22:00,71.1,68.0,30.15,NNW,338,5.8,5.8,90,0.00,CLR,,0.00,WeatherDisplay:10.37,2013-01-07 13:22:00,
2013-01-07 08:27:00,71.2,68.2,30.15,NW,315,5.8,5.8,90,0.00,CLR,,0.00,WeatherDisplay:10.37,2013-01-07 13:27:00,
2013-01-07 08:32:00,71.2,68.2,30.18,NW,315,5.9,5.9,90,0.00,CLR,,0.00,WeatherDisplay:10.37,2013-01-07 13:32:00,
2013-01-07 08:37:00,71.4,68.3,30.18,North,0,4.0,4.0,90,0.00,CLR,,0.00,WeatherDisplay:10.37,2013-01-07 13:37:00,
2013-01-07 08:43:00,71.4,68.3,30.18,NW,315,4.6,4.6,90,0.00,CLR,,0.00,WeatherDisplay:10.37,2013-01-07 13:43:00,
2013-01-07 08:48:00,71.8,68.7,30.18,North,0,4.6,4.6,90,0.00,CLR,,0.00,WeatherDisplay:10.37,2013-01-07 13:48:00,
2013-01-07 08:53:00,71.8,68.7,30.18,WNW,292,5.8,5.8,90,0.00,CLR,,0.00,WeatherDisplay:10.37,2013-01-07 13:53:00,
2013-01-07 08:58:00,71.8,68.7,30.18,North,0,5.8,5.8,90,0.00,CLR,,0.00,WeatherDisplay:10.37,2013-01-07 13:58:00,
2013-01-07 09:03:00,72.0,68.9,30.18,NNW,338,5.8,5.8,90,0.00,CLR,,0.00,WeatherDisplay:10.37,2013-01-07 14:03:00,
2013-01-07 09:08:00,72.0,68.9,30.18,NNW,338,5.8,5.8,90,0.00,CLR,,0.00,WeatherDisplay:10.37,2013-01-07 14:08:00,
2013-01-07 09:13:00,72.0,68.9,30.18,North,0,2.3,0.0,90,0.00,CLR,,0.00,WeatherDisplay:10.37,2013-01-07 14:13:00,
2013-01-07 09:18:00,72.0,68.9,30.18,North,0,6.9,6.9,90,0.00,CLR,,0.00,WeatherDisplay:10.37,2013-01-07 14:18:00,
2013-01-07 09:23:00,72.0,68.9,30.18,NNE,22,3.5,3.5,90,0.00,CLR,,0.00,WeatherDisplay:10.37,2013-01-07 14:23:00,
2013-01-07 09:28:00,72.0,68.9,30.18,North,0,5.6,5.6,90,0.00,CLR,,0.00,WeatherDisplay:10.37,2013-01-07 14:28:00,
2013-01-07 09:34:00,72.0,68.9,30.18,North,0,3.5,3.5,90,0.00,CLR,,0.00,WeatherDisplay:10.37,2013-01-07 14:34:00,
2013-01-07 09:39:00,72.0,68.9,30.18,North,0,5.8,5.8,90,0.00,CLR,,0.00,WeatherDisplay:10.37,2013-01-07 14:39:00,
2013-01-07 09:44:00,72.0,68.9,30.18,NE,45,10.4,10.4,90,0.00,CLR,,0.00,WeatherDisplay:10.37,2013-01-07 14:44:00,
2013-01-07 09:49:00,71.6,68.5,30.21,North,0,6.9,6.9,90,0.01,RA,,0.01,WeatherDisplay:10.37,2013-01-07 14:49:00,
2013-01-07 09:54:00,71.4,68.7,30.21,East,90,10.4,10.4,91,0.10,RA,,0.11,WeatherDisplay:10.37,2013-01-07 14:54:00,
2013-01-07 09:59:00,71.2,68.5,30.21,NNE,22,6.9,6.9,91,0.18,RA,,0.18,WeatherDisplay:10.37,2013-01-07 14:59:00,
2013-01-07 10:04:00,71.2,68.5,30.21,NE,45,5.8,5.8,91,0.20,RA,,0.20,WeatherDisplay:10.37,2013-01-07 15:04:00,
2013-01-07 10:09:00,71.2,68.5,30.21,ENE,68,3.5,3.6,91,0.23,RA,,0.23,WeatherDisplay:10.37,2013-01-07 15:09:00,
2013-01-07 10:14:00,71.2,68.5,30.21,East,90,8.1,8.1,91,0.25,RA,,0.25,WeatherDisplay:10.37,2013-01-07 15:14:00,
2013-01-07 10:19:00,71.4,68.7,30.21,East,90,4.6,4.6,91,0.27,RA,,0.27,WeatherDisplay:10.37,2013-01-07 15:19:00,
2013-01-07 10:25:00,71.4,68.7,30.21,ENE,68,6.0,6.0,91,0.29,RA,,0.29,WeatherDisplay:10.37,2013-01-07 15:25:00,
2013-01-07 10:30:00,71.6,68.5,30.21,East,90,5.8,5.8,90,0.29,RA,,0.29,WeatherDisplay:10.37,2013-01-07 15:30:00,
2013-01-07 10:35:00,71.6,68.8,30.21,NE,45,3.5,3.5,91,0.31,RA,,0.31,WeatherDisplay:10.37,2013-01-07 15:35:00,
2013-01-07 10:40:00,71.6,68.5,30.21,ENE,68,5.8,5.8,90,0.31,RA,,0.31,WeatherDisplay:10.37,2013-01-07 15:40:00,
2013-01-07 10:45:00,71.8,68.7,30.21,ESE,112,4.6,4.6,90,0.31,RA,,0.31,WeatherDisplay:10.37,2013-01-07 15:45:00,
2013-01-07 10:50:00,71.8,69.0,30.18,East,86,2.0,4.0,91,0.01,,,0.34,WeatherDisplay:10.37,2013-01-07 15:50:00,
2013-01-07 10:55:00,71.4,68.7,30.18,SE,135,4.6,4.6,91,0.25,RA,,0.37,WeatherDisplay:10.37,2013-01-07 15:55:00,
2013-01-07 11:00:00,71.2,68.5,30.21,South,180,5.8,5.8,91,0.20,RA,,0.39,WeatherDisplay:10.37,2013-01-07 16:00:00,
2013-01-07 11:05:00,71.4,68.7,30.21,South,180,3.8,3.8,91,0.20,RA,,0.40,WeatherDisplay:10.37,2013-01-07 16:05:00,
2013-01-07 11:11:00,71.4,68.7,30.21,SE,135,4.6,4.6,91,0.16,RA,,0.40,WeatherDisplay:10.37,2013-01-07 16:11:00,
2013-01-07 11:16:00,71.4,68.7,30.21,SSE,158,3.5,3.5,91,0.15,CLR,,0.40,WeatherDisplay:10.37,2013-01-07 16:16:00,
2013-01-07 11:21:00,71.8,69.0,30.21,SW,225,4.6,4.6,91,0.13,RA,,0.41,WeatherDisplay:10.37,2013-01-07 16:21:00,
2013-01-07 11:26:00,72.1,69.4,30.21,SSW,202,2.2,0.0,91,0.12,RA,,0.41,WeatherDisplay:10.37,2013-01-07 16:26:00,
2013-01-07 11:31:00,72.3,69.2,30.18,West,270,2.3,2.4,90,0.12,CLR,,0.41,WeatherDisplay:10.37,2013-01-07 16:31:00,
2013-01-07 11:36:00,72.1,69.0,30.18,NW,315,3.5,3.5,90,0.10,CLR,,0.41,WeatherDisplay:10.37,2013-01-07 16:36:00,
2013-01-07 11:42:00,72.1,69.0,30.18,NW,315,2.3,2.3,90,0.09,CLR,,0.41,WeatherDisplay:10.37,2013-01-07 16:42:00,
2013-01-07 11:47:00,72.1,69.0,30.18,WNW,292,1.2,0.0,90,0.08,CLR,,0.41,WeatherDisplay:10.37,2013-01-07 16:47:00,
2013-01-07 11:52:00,72.1,69.0,30.18,WSW,248,4.9,4.9,90,0.07,CLR,,0.41,WeatherDisplay:10.37,2013-01-07 16:52:00,
2013-01-07 11:57:00,72.1,69.0,30.18,West,270,3.5,3.5,90,0.03,CLR,,0.41,WeatherDisplay:10.37,2013-01-07 16:57:00,
2013-01-07 12:02:00,72.0,68.9,30.15,NW,315,4.9,4.9,90,0.01,CLR,,0.41,WeatherDisplay:10.37,2013-01-07 17:02:00,
2013-01-07 12:07:00,72.0,68.9,30.15,NW,315,4.6,4.6,90,0.01,CLR,,0.41,WeatherDisplay:10.37,2013-01-07 17:07:00,
2013-01-07 12:12:00,71.4,68.3,30.15,NW,315,5.8,5.8,90,0.01,CLR,,0.41,WeatherDisplay:10.37,2013-01-07 17:12:00,
2013-01-07 12:17:00,71.6,68.5,30.15,NW,315,5.8,5.8,90,0.01,CLR,,0.41,WeatherDisplay:10.37,2013-01-07 17:17:00,
2013-01-07 12:22:00,71.6,68.5,30.15,WNW,292,5.8,5.8,90,0.00,CLR,,0.41,WeatherDisplay:10.37,2013-01-07 17:22:00,
2013-01-07 12:27:00,71.6,68.5,30.15,WNW,292,5.8,5.8,90,0.00,CLR,,0.41,WeatherDisplay:10.37,2013-01-07 17:27:00,
2013-01-07 12:33:00,71.6,68.5,30.15,NW,315,5.8,5.8,90,0.00,CLR,,0.41,WeatherDisplay:10.37,2013-01-07 17:33:00,
2013-01-07 12:38:00,71.8,69.0,30.15,NW,315,4.6,4.6,91,0.00,CLR,,0.41,WeatherDisplay:10.37,2013-01-07 17:38:00,
2013-01-07 12:43:00,71.4,68.7,30.15,WNW,292,7.1,7.1,91,0.00,CLR,,0.41,WeatherDisplay:10.37,2013-01-07 17:43:00,
2013-01-07 12:48:00,71.6,68.5,30.15,North,0,5.9,5.9,90,0.00,CLR,,0.41,WeatherDisplay:10.37,2013-01-07 17:48:00,
2013-01-07 12:53:00,71.6,68.5,30.15,North,0,5.8,5.8,90,0.00,CLR,,0.41,WeatherDisplay:10.37,2013-01-07 17:53:00,
2013-01-07 12:58:00,71.6,68.5,30.15,NW,315,5.8,5.8,90,0.00,CLR,,0.41,WeatherDisplay:10.37,2013-01-07 17:58:00,
2013-01-07 13:03:00,71.8,68.7,30.15,North,0,5.4,5.4,90,0.00,CLR,,0.41,WeatherDisplay:10.37,2013-01-07 18:03:00,
2013-01-07 13:09:00,71.8,68.7,30.15,NW,315,5.8,5.8,90,0.00,CLR,,0.41,WeatherDisplay:10.37,2013-01-07 18:09:00,
2013-01-07 13:14:00,71.8,68.7,30.15,NW,315,4.6,4.6,90,0.00,CLR,,0.41,WeatherDisplay:10.37,2013-01-07 18:14:00,
2013-01-07 13:19:00,71.8,68.7,30.15,NW,315,5.8,5.8,90,0.00,CLR,,0.41,WeatherDisplay:10.37,2013-01-07 18:19:00,
2013-01-07 13:24:00,71.8,68.7,30.15,NW,315,5.8,5.8,90,0.00,CLR,,0.41,WeatherDisplay:10.37,2013-01-07 18:24:00,
2013-01-07 13:29:00,71.8,68.7,30.15,NW,315,5.8,5.8,90,0.00,CLR,,0.41,WeatherDisplay:10.37,2013-01-07 18:29:00,
2013-01-07 13:34:00,71.8,68.7,30.12,WNW,292,6.0,6.0,90,0.00,CLR,,0.41,WeatherDisplay:10.37,2013-01-07 18:34:00,
2013-01-07 13:39:00,72.0,68.9,30.12,West,270,5.8,5.8,90,0.00,CLR,,0.41,WeatherDisplay:10.37,2013-01-07 18:39:00,
2013-01-07 13:44:00,72.0,68.9,30.12,NW,315,8.1,8.1,90,0.00,CLR,,0.41,WeatherDisplay:10.37,2013-01-07 18:44:00,
2013-01-07 13:50:00,72.0,68.9,30.15,NW,315,6.9,6.9,90,0.00,CLR,,0.41,WeatherDisplay:10.37,2013-01-07 18:50:00,
2013-01-07 13:55:00,72.0,68.9,30.15,North,0,8.1,8.1,90,0.00,CLR,,0.41,WeatherDisplay:10.37,2013-01-07 18:55:00,
2013-01-07 14:00:00,72.1,69.4,30.15,North,0,4.6,4.6,91,0.00,CLR,,0.41,WeatherDisplay:10.37,2013-01-07 19:00:00,
2013-01-07 14:05:00,72.1,69.4,30.12,North,0,6.9,6.9,91,0.00,CLR,,0.41,WeatherDisplay:10.37,2013-01-07 19:05:00,
2013-01-07 14:10:00,72.1,69.4,30.12,West,270,5.8,5.8,91,0.00,CLR,,0.41,WeatherDisplay:10.37,2013-01-07 19:10:00,
2013-01-07 14:15:00,72.1,69.0,30.09,North,0,8.1,8.1,90,0.00,CLR,,0.41,WeatherDisplay:10.37,2013-01-07 19:15:00,
2013-01-07 14:21:00,72.1,69.0,30.09,NW,315,6.9,6.9,90,0.00,CLR,,0.41,WeatherDisplay:10.37,2013-01-07 19:21:00,
2013-01-07 14:26:00,72.1,69.0,30.09,North,0,6.2,6.2,90,0.00,CLR,,0.41,WeatherDisplay:10.37,2013-01-07 19:26:00,
2013-01-07 14:31:00,72.3,69.2,30.09,WNW,292,8.1,8.1,90,0.00,CLR,,0.41,WeatherDisplay:10.37,2013-01-07 19:31:00,
2013-01-07 14:36:00,72.3,69.2,30.09,West,270,5.8,5.8,90,0.00,CLR,,0.41,WeatherDisplay:10.37,2013-01-07 19:36:00,
2013-01-07 14:41:00,72.7,69.6,30.09,North,0,8.1,8.1,90,0.00,CLR,,0.41,WeatherDisplay:10.37,2013-01-07 19:41:00,
2013-01-07 14:46:00,72.7,69.6,30.12,West,270,5.8,5.8,90,0.00,CLR,,0.41,WeatherDisplay:10.37,2013-01-07 19:46:00,
2013-01-07 14:52:00,72.7,69.6,30.12,NNW,338,4.9,4.9,90,0.00,CLR,,0.41,WeatherDisplay:10.37,2013-01-07 19:52:00,
2013-01-07 14:57:00,72.9,69.4,30.12,North,0,6.0,6.0,89,0.00,CLR,,0.41,WeatherDisplay:10.37,2013-01-07 19:57:00,
2013-01-07 15:02:00,73.0,69.6,30.09,NW,315,6.9,6.9,89,0.00,CLR,,0.41,WeatherDisplay:10.37,2013-01-07 20:02:00,
2013-01-07 15:07:00,73.2,69.8,30.09,NW,315,4.0,4.0,89,0.00,CLR,,0.41,WeatherDisplay:10.37,2013-01-07 20:07:00,
2013-01-07 15:12:00,73.4,70.0,30.09,NNE,22,4.6,4.6,89,0.00,CLR,,0.41,WeatherDisplay:10.37,2013-01-07 20:12:00,
2013-01-07 15:18:00,73.4,70.0,30.09,West,270,4.3,4.3,89,0.00,CLR,,0.41,WeatherDisplay:10.37,2013-01-07 20:18:00,
2013-01-07 15:21:00,73.4,70.0,30.09,NW,315,5.8,5.8,89,0.00,CLR,,0.41,WeatherDisplay:10.37,2013-01-07 20:21:00,
2013-01-07 15:26:00,73.4,70.0,30.09,NW,315,6.2,6.2,89,0.00,CLR,,0.41,WeatherDisplay:10.37,2013-01-07 20:26:00,
2013-01-07 15:31:00,73.2,69.5,30.09,NNW,338,5.8,5.8,88,0.00,CLR,,0.41,WeatherDisplay:10.37,2013-01-07 20:31:00,
2013-01-07 15:37:00,73.2,69.5,30.09,North,0,5.8,5.8,88,0.00,CLR,,0.41,WeatherDisplay:10.37,2013-01-07 20:37:00,
2013-01-07 15:42:00,73.2,69.5,30.09,NW,315,4.9,4.9,88,0.00,CLR,,0.41,WeatherDisplay:10.37,2013-01-07 20:42:00,
2013-01-07 15:47:00,73.2,69.5,30.09,North,0,3.5,3.5,88,0.00,CLR,,0.41,WeatherDisplay:10.37,2013-01-07 20:47:00,
2013-01-07 15:52:00,73.2,69.8,30.09,NW,315,2.3,0.0,89,0.00,CLR,,0.41,WeatherDisplay:10.37,2013-01-07 20:52:00,
2013-01-07 15:57:00,73.2,69.8,30.09,NW,315,3.6,3.6,89,0.00,CLR,,0.41,WeatherDisplay:10.37,2013-01-07 20:57:00,
2013-01-07 16:02:00,73.2,69.8,30.12,North,0,5.8,5.8,89,0.00,CLR,,0.41,WeatherDisplay:10.37,2013-01-07 21:02:00,
2013-01-07 16:08:00,73.2,69.8,30.12,North,0,3.5,3.5,89,0.00,CLR,,0.41,WeatherDisplay:10.37,2013-01-07 21:08:00,
2013-01-07 16:13:00,73.4,69.6,30.12,North,0,3.1,3.1,88,0.00,CLR,,0.41,WeatherDisplay:10.37,2013-01-07 21:13:00,
2013-01-07 16:18:00,73.2,69.8,30.12,North,0,4.6,4.6,89,0.00,CLR,,0.41,WeatherDisplay:10.37,2013-01-07 21:18:00,
2013-01-07 16:23:00,73.2,69.8,30.12,NNE,22,3.8,3.8,89,0.00,CLR,,0.41,WeatherDisplay:10.37,2013-01-07 21:23:00,
2013-01-07 16:28:00,73.4,69.6,30.12,North,0,2.3,2.3,88,0.00,CLR,,0.41,WeatherDisplay:10.37,2013-01-07 21:28:00,
2013-01-07 16:33:00,73.4,69.6,30.12,NE,45,4.6,4.6,88,0.00,CLR,,0.41,WeatherDisplay:10.37,2013-01-07 21:33:00,
2013-01-07 16:38:00,73.2,69.5,30.12,NNE,22,5.9,5.9,88,0.00,CLR,,0.41,WeatherDisplay:10.37,2013-01-07 21:38:00,
2013-01-07 16:44:00,73.2,69.8,30.12,NE,45,5.8,5.8,89,0.00,CLR,,0.41,WeatherDisplay:10.37,2013-01-07 21:44:00,
2013-01-07 16:49:00,73.0,69.6,30.12,ENE,68,5.8,5.8,89,0.00,CLR,,0.41,WeatherDisplay:10.37,2013-01-07 21:49:00,
2013-01-07 16:54:00,73.0,69.3,30.12,North,0,4.6,4.6,88,0.00,CLR,,0.41,WeatherDisplay:10.37,2013-01-07 21:54:00,
2013-01-07 16:59:00,73.0,69.3,30.12,ENE,68,5.8,5.8,88,0.00,CLR,,0.41,WeatherDisplay:10.37,2013-01-07 21:59:00,
2013-01-07 17:05:00,73.0,69.3,30.12,North,0,4.6,4.6,88,0.00,CLR,,0.41,WeatherDisplay:10.37,2013-01-07 22:05:00,
2013-01-07 17:10:00,73.0,69.3,30.12,North,0,5.8,5.8,88,0.00,CLR,,0.41,WeatherDisplay:10.37,2013-01-07 22:10:00,
2013-01-07 17:15:00,73.0,69.6,30.12,North,0,5.8,5.8,89,0.00,CLR,,0.41,WeatherDisplay:10.37,2013-01-07 22:15:00,
2013-01-07 17:20:00,73.2,69.8,30.12,NNW,338,3.6,3.6,89,0.00,CLR,,0.41,WeatherDisplay:10.37,2013-01-07 22:20:00,
2013-01-07 17:25:00,73.0,69.3,30.12,NW,315,5.9,5.9,88,0.00,CLR,,0.41,WeatherDisplay:10.37,2013-01-07 22:25:00,
2013-01-07 17:30:00,73.0,69.3,30.12,North,0,4.6,4.6,88,0.00,CLR,,0.41,WeatherDisplay:10.37,2013-01-07 22:30:00,
2013-01-07 17:35:00,73.0,69.3,30.12,North,0,6.9,6.9,88,0.00,CLR,,0.41,WeatherDisplay:10.37,2013-01-07 22:35:00,
2013-01-07 17:40:00,73.0,69.3,30.12,NNE,22,2.3,2.3,88,0.00,CLR,,0.41,WeatherDisplay:10.37,2013-01-07 22:40:00,
2013-01-07 17:45:00,73.0,69.3,30.12,North,358,3.0,7.0,88,0.00,CLR,,0.41,WeatherDisplay:10.37,2013-01-07 22:45:00,
2013-01-07 17:51:00,73.0,69.3,30.15,North,0,3.5,3.5,88,0.00,CLR,,0.41,WeatherDisplay:10.37,2013-01-07 22:51:00,
2013-01-07 17:56:00,73.0,69.3,30.15,North,0,4.6,4.6,88,0.00,CLR,,0.41,WeatherDisplay:10.37,2013-01-07 22:56:00,
2013-01-07 18:01:00,73.2,69.5,30.15,North,0,4.6,4.6,88,0.00,CLR,,0.41,WeatherDisplay:10.37,2013-01-07 23:01:00,
2013-01-07 18:06:00,73.2,69.5,30.15,North,0,3.8,3.8,88,0.00,CLR,,0.41,WeatherDisplay:10.37,2013-01-07 23:06:00,
2013-01-07 18:11:00,73.2,69.5,30.15,NNW,338,2.3,0.0,88,0.00,CLR,,0.41,WeatherDisplay:10.37,2013-01-07 23:11:00,
2013-01-07 18:16:00,73.2,69.8,30.15,North,0,3.5,3.5,89,0.00,CLR,,0.41,WeatherDisplay:10.37,2013-01-07 23:16:00,
2013-01-07 18:21:00,73.2,69.8,30.15,North,0,4.6,4.6,89,0.00,CLR,,0.41,WeatherDisplay:10.37,2013-01-07 23:21:00,
2013-01-07 18:26:00,73.2,69.8,30.15,North,0,1.2,0.0,89,0.00,CLR,,0.41,WeatherDisplay:10.37,2013-01-07 23:26:00,
2013-01-07 18:31:00,73.2,69.8,30.15,NNE,22,2.3,2.3,89,0.00,CLR,,0.41,WeatherDisplay:10.37,2013-01-07 23:31:00,
2013-01-07 18:36:00,73.0,69.6,30.15,East,90,4.6,4.6,89,0.00,CLR,,0.41,WeatherDisplay:10.37,2013-01-07 23:36:00,
2013-01-07 18:42:00,73.2,69.5,30.15,NNE,22,1.6,2.9,88,0.00,CLR,,0.41,WeatherDisplay:10.37,2013-01-07 23:42:00,
2013-01-07 18:47:00,73.2,69.5,30.15,ENE,68,3.5,3.5,88,0.00,CLR,,0.41,WeatherDisplay:10.37,2013-01-07 23:47:00,
2013-01-07 18:52:00,73.4,69.6,30.15,NE,45,3.3,3.3,88,0.00,CLR,,0.41,WeatherDisplay:10.37,2013-01-07 23:52:00,
2013-01-07 18:57:00,73.4,69.3,30.15,East,90,4.6,4.6,87,0.00,CLR,,0.41,WeatherDisplay:10.37,2013-01-07 23:57:00,
2013-01-07 19:03:00,73.9,69.8,30.15,North,0,4.6,4.6,87,0.00,CLR,,0.41,WeatherDisplay:10.37,2013-01-08 00:03:00,
2013-01-07 19:08:00,73.6,69.1,30.15,East,90,3.5,0.0,86,0.00,CLR,,0.41,WeatherDisplay:10.37,2013-01-08 00:08:00,
2013-01-07 19:13:00,73.6,69.5,30.15,North,0,2.6,2.6,87,0.00,CLR,,0.41,WeatherDisplay:10.37,2013-01-08 00:13:00,
2013-01-07 19:18:00,73.6,69.1,30.15,East,90,3.5,3.5,86,0.00,CLR,,0.41,WeatherDisplay:10.37,2013-01-08 00:18:00,
2013-01-07 19:23:00,73.6,69.1,30.15,NW,315,2.6,2.6,86,0.00,CLR,,0.41,WeatherDisplay:10.37,2013-01-08 00:23:00,
2013-01-07 19:29:00,73.6,69.1,30.15,NNE,22,4.6,4.6,86,0.00,CLR,,0.41,WeatherDisplay:10.37,2013-01-08 00:29:00,
2013-01-07 19:34:00,73.8,69.3,30.15,East,90,3.5,3.5,86,0.00,CLR,,0.41,WeatherDisplay:10.37,2013-01-08 00:34:00,
2013-01-07 19:39:00,73.8,69.3,30.15,SE,135,4.6,4.6,86,0.00,CLR,,0.41,WeatherDisplay:10.37,2013-01-08 00:39:00,
2013-01-07 19:44:00,73.8,69.3,30.15,NNE,22,3.8,3.8,86,0.00,CLR,,0.41,WeatherDisplay:10.37,2013-01-08 00:44:00,
2013-01-07 19:49:00,73.8,69.0,30.15,NE,45,3.5,3.5,85,0.00,CLR,,0.41,WeatherDisplay:10.37,2013-01-08 00:49:00,
2013-01-07 19:54:00,73.8,69.0,30.15,East,90,3.6,3.6,85,0.00,CLR,,0.41,WeatherDisplay:10.37,2013-01-08 00:54:00,
2013-01-07 20:00:00,73.8,69.0,30.15,NNE,22,3.5,3.5,85,0.00,CLR,,0.41,WeatherDisplay:10.37,2013-01-08 01:00:00,
2013-01-07 20:05:00,73.8,68.6,30.15,ENE,68,4.6,4.6,84,0.00,CLR,,0.41,WeatherDisplay:10.37,2013-01-08 01:05:00,
2013-01-07 20:10:00,73.9,68.4,30.15,East,90,4.6,4.6,83,0.00,CLR,,0.41,WeatherDisplay:10.37,2013-01-08 01:10:00,
2013-01-07 20:15:00,73.9,68.4,30.15,NNE,22,3.6,3.6,83,0.00,CLR,,0.41,WeatherDisplay:10.37,2013-01-08 01:15:00,
2013-01-07 20:20:00,73.9,68.4,30.12,NE,36,2.0,6.0,83,0.00,RA,,0.41,WeatherDisplay:10.37,2013-01-08 01:20:00,
2013-01-07 20:25:00,73.8,68.3,30.12,North,0,1.2,0.0,83,0.00,CLR,,0.41,WeatherDisplay:10.37,2013-01-08 01:25:00,
2013-01-07 20:30:00,73.8,68.3,30.12,NW,315,3.5,3.5,83,0.00,CLR,,0.41,WeatherDisplay:10.37,2013-01-08 01:30:00,
2013-01-07 20:35:00,73.4,68.3,30.15,North,0,0.0,0.0,84,0.00,CLR,,0.41,WeatherDisplay:10.37,2013-01-08 01:35:00,
2013-01-07 20:40:00,73.2,68.4,30.15,NW,315,2.6,2.6,85,0.00,CLR,,0.41,WeatherDisplay:10.37,2013-01-08 01:40:00,
2013-01-07 20:45:00,73.2,68.4,30.15,NW,324,0.0,3.0,85,0.00,RA,,0.41,WeatherDisplay:10.37,2013-01-08 01:45:00,
2013-01-07 20:50:00,73.2,68.4,30.15,North,0,0.0,0.0,85,0.00,CLR,,0.41,WeatherDisplay:10.37,2013-01-08 01:50:00,
2013-01-07 20:56:00,73.0,68.3,30.15,NW,315,1.2,0.0,85,0.00,CLR,,0.41,WeatherDisplay:10.37,2013-01-08 01:56:00,
2013-01-07 21:01:00,73.0,68.6,30.15,NNW,338,0.0,0.0,86,0.00,CLR,,0.41,WeatherDisplay:10.37,2013-01-08 02:01:00,
2013-01-07 21:06:00,73.0,68.6,30.15,NE,45,2.3,0.0,86,0.00,CLR,,0.41,WeatherDisplay:10.37,2013-01-08 02:06:00,
2013-01-07 21:11:00,73.2,68.8,30.15,NNW,338,2.3,2.3,86,0.00,CLR,,0.41,WeatherDisplay:10.37,2013-01-08 02:11:00,
2013-01-07 21:16:00,73.2,68.8,30.15,North,0,1.2,0.0,86,0.00,CLR,,0.41,WeatherDisplay:10.37,2013-01-08 02:16:00,
2013-01-07 21:21:00,73.2,68.8,30.15,NNE,22,2.3,2.3,86,0.00,CLR,,0.41,WeatherDisplay:10.37,2013-01-08 02:21:00,
2013-01-07 21:26:00,73.2,68.8,30.15,NNE,22,2.3,2.3,86,0.00,CLR,,0.41,WeatherDisplay:10.37,2013-01-08 02:26:00,
2013-01-07 21:32:00,73.4,68.6,30.18,NE,45,5.8,0.0,85,0.00,CLR,,0.41,WeatherDisplay:10.37,2013-01-08 02:32:00,
2013-01-07 21:37:00,73.6,68.8,30.18,NNE,22,4.6,4.6,85,0.00,CLR,,0.41,WeatherDisplay:10.37,2013-01-08 02:37:00,
2013-01-07 21:42:00,73.6,68.8,30.18,NE,45,4.6,4.6,85,0.00,CLR,,0.41,WeatherDisplay:10.37,2013-01-08 02:42:00,
2013-01-07 21:47:00,73.9,69.5,30.15,ENE,68,4.6,4.6,86,0.00,CLR,,0.41,WeatherDisplay:10.37,2013-01-08 02:47:00,
2013-01-07 21:53:00,73.8,69.3,30.15,ENE,68,6.9,6.9,86,0.00,CLR,,0.41,WeatherDisplay:10.37,2013-01-08 02:53:00,
2013-01-07 21:58:00,73.9,69.5,30.15,NW,315,8.1,8.1,86,0.00,CLR,,0.41,WeatherDisplay:10.37,2013-01-08 02:58:00,
2013-01-07 22:03:00,73.9,69.5,30.15,SE,135,6.9,6.9,86,0.00,CLR,,0.41,WeatherDisplay:10.37,2013-01-08 03:03:00,
2013-01-07 22:08:00,73.8,69.3,30.15,East,90,5.8,5.8,86,0.00,CLR,,0.41,WeatherDisplay:10.37,2013-01-08 03:08:00,
2013-01-07 22:13:00,73.8,69.3,30.15,ENE,68,5.8,5.8,86,0.00,CLR,,0.41,WeatherDisplay:10.37,2013-01-08 03:13:00,
2013-01-07 22:18:00,73.6,69.1,30.15,NE,45,7.4,7.4,86,0.00,CLR,,0.41,WeatherDisplay:10.37,2013-01-08 03:18:00,
2013-01-07 22:24:00,74.1,70.0,30.15,ENE,68,5.8,5.8,87,0.00,CLR,,0.41,WeatherDisplay:10.37,2013-01-08 03:24:00,
2013-01-07 22:29:00,74.3,70.2,30.15,NE,45,6.9,6.9,87,0.00,CLR,,0.41,WeatherDisplay:10.37,2013-01-08 03:29:00,
2013-01-07 22:34:00,74.3,69.8,30.15,ENE,68,7.6,7.6,86,0.00,CLR,,0.41,WeatherDisplay:10.37,2013-01-08 03:34:00,
2013-01-07 22:39:00,73.9,69.5,30.15,North,0,6.9,6.9,86,0.00,CLR,,0.41,WeatherDisplay:10.37,2013-01-08 03:39:00,
2013-01-07 22:44:00,73.9,69.5,30.15,East,90,5.8,5.8,86,0.00,CLR,,0.41,WeatherDisplay:10.37,2013-01-08 03:44:00,
2013-01-07 22:50:00,73.9,69.5,30.15,East,90,5.8,5.8,86,0.00,CLR,,0.41,WeatherDisplay:10.37,2013-01-08 03:50:00,
2013-01-07 22:55:00,74.1,70.0,30.15,East,90,8.1,8.1,87,0.00,CLR,,0.41,WeatherDisplay:10.37,2013-01-08 03:55:00,
2013-01-07 23:00:00,74.1,69.7,30.15,East,90,4.6,4.6,86,0.00,CLR,,0.41,WeatherDisplay:10.37,2013-01-08 04:00:00,
2013-01-07 23:05:00,74.1,69.7,30.15,East,80,3.0,7.0,86,0.00,RA,,0.41,WeatherDisplay:10.37,2013-01-08 04:05:00,
2013-01-07 23:10:00,74.3,69.8,30.15,East,88,6.0,8.0,86,0.00,RA,,0.41,WeatherDisplay:10.37,2013-01-08 04:10:00,
2013-01-07 23:15:00,74.3,69.5,30.15,ENE,68,5.9,5.9,85,0.00,CLR,,0.41,WeatherDisplay:10.37,2013-01-08 04:15:00,
2013-01-07 23:20:00,74.3,69.5,30.15,ENE,62,5.0,8.0,85,0.00,RA,,0.41,WeatherDisplay:10.37,2013-01-08 04:20:00,
2013-01-07 23:25:00,74.3,69.5,30.15,ENE,68,5.8,5.8,85,0.00,CLR,,0.41,WeatherDisplay:10.37,2013-01-08 04:25:00,
2013-01-07 23:30:00,74.3,69.8,30.15,East,90,6.2,6.2,86,0.00,CLR,,0.41,WeatherDisplay:10.37,2013-01-08 04:30:00,
2013-01-07 23:35:00,74.3,69.8,30.15,ENE,68,8.1,8.1,86,0.00,CLR,,0.41,WeatherDisplay:10.37,2013-01-08 04:35:00,
2013-01-07 23:41:00,74.3,69.5,30.15,NE,45,8.1,8.1,85,0.00,CLR,,0.41,WeatherDisplay:10.37,2013-01-08 04:41:00,
2013-01-07 23:46:00,74.3,69.8,30.15,NE,45,5.9,5.9,86,0.00,CLR,,0.41,WeatherDisplay:10.37,2013-01-08 04:46:00,
2013-01-07 23:51:00,74.3,69.8,30.15,South,180,5.4,5.4,86,0.00,CLR,,0.41,WeatherDisplay:10.37,2013-01-08 04:51:00,
2013-01-07 23:56:00,74.3,69.8,30.15,ENE,68,5.8,5.8,86,0.00,CLR,,0.41,WeatherDisplay:10.37,2013-01-08 04:56:00,